Time;durP1;ratioP1;P1;durP2;ratioP2;P2;SDS_P1;SDS_P2;PMS_P1;PMS_P2;Temp;Humidity;BMP_temperature;BMP_pressure;BME280_temperature;BME280_humidity;BME280_pressure;Samples;Min_cycle;Max_cycle;Signal;HPM_P1;HPM_P2
2023/10/06 00:03:04;;;;;;;11.25;3.78;;;;;;;;;;5033622;28;20041;-63
2023/10/06 00:05:30;;;;;;;12.88;4.05;;;;;;;;;;5033318;28;20128;-63
2023/10/06 00:07:57;;;;;;;11.95;3.92;;;;;;;;;;5033396;28;20041;-63
2023/10/06 00:10:27;;;;;;;12.98;4.03;;;;;;;;;;5033467;28;20096;-63
2023/10/06 00:12:58;;;;;;;12.02;3.95;;;;;;;;;;5033666;28;20045;-63
2023/10/06 00:15:28;;;;;;;12.27;4.05;;;;;;;;;;5033163;28;20111;-63
2023/10/06 00:18:07;;;;;;;11.38;3.90;;;;;;;;;;5046943;28;20053;-63
2023/10/06 00:20:39;;;;;;;11.95;3.70;;;;;;;;;;5053503;28;20583;-63
2023/10/06 00:23:07;;;;;;;15.35;4.07;;;;;;;;;;5053035;28;20098;-63
2023/10/06 00:25:36;;;;;;;12.27;4.05;;;;;;;;;;5048041;28;20046;-63
2023/10/06 00:28:04;;;;;;;11.18;4.22;;;;;;;;;;5033412;28;20034;-63
2023/10/06 00:30:31;;;;;;;11.13;3.95;;;;;;;;;;5033009;28;20052;-63
2023/10/06 00:33:00;;;;;;;9.98;4.13;;;;;;;;;;5033035;28;20096;-63
2023/10/06 00:35:30;;;;;;;15.88;4.75;;;;;;;;;;5033329;28;20056;-63
2023/10/06 00:38:12;;;;;;;10.82;4.50;;;;;;;;;;5032702;28;20053;-63
2023/10/06 00:40:40;;;;;;;10.52;4.70;;;;;;;;;;5033028;28;20525;-63
2023/10/06 00:43:08;;;;;;;14.02;4.80;;;;;;;;;;5033071;28;20049;-63
2023/10/06 00:45:39;;;;;;;12.57;4.95;;;;;;;;;;5032424;28;20050;-63
2023/10/06 00:48:14;;;;;;;11.48;4.78;;;;;;;;;;5032763;28;20045;-63
2023/10/06 00:50:40;;;;;;;12.63;5.05;;;;;;;;;;5032719;28;20056;-63
2023/10/06 00:53:08;;;;;;;9.15;4.63;;;;;;;;;;5032516;28;20115;-63
2023/10/06 00:55:37;;;;;;;11.75;5.30;;;;;;;;;;5032784;28;20467;-63
2023/10/06 00:58:10;;;;;;;16.10;5.63;;;;;;;;;;5032939;28;20084;-63
2023/10/06 01:00:37;;;;;;;;;;;;;;;;;;5032834;28;20052;-63
2023/10/06 01:03:10;;;;;;;12.80;5.53;;;;;;;;;;5032713;28;19924;-63
2023/10/06 01:05:36;;;;;;;14.63;5.65;;;;;;;;;;5032429;28;20377;-63
2023/10/06 01:08:05;;;;;;;9.60;5.13;;;;;;;;;;5032351;28;20408;-63
2023/10/06 01:10:34;;;;;;;17.48;5.97;;;;;;;;;;5032650;28;20454;-63
2023/10/06 01:13:11;;;;;;;12.15;5.50;;;;;;;;;;5032575;28;20064;-63
2023/10/06 01:15:45;;;;;;;12.70;6.20;;;;;;;;;;5032312;28;20055;-63
2023/10/06 01:18:23;;;;;;;14.85;5.57;;;;;;;;;;5048474;28;20651;-63
2023/10/06 01:20:49;;;;;;;11.18;5.85;;;;;;;;;;5051940;28;20041;-63
2023/10/06 01:23:22;;;;;;;14.32;6.50;;;;;;;;;;5052247;28;20507;-63
2023/10/06 01:25:54;;;;;;;9.02;5.53;;;;;;;;;;5044817;28;20037;-63
2023/10/06 01:28:23;;;;;;;12.80;6.10;;;;;;;;;;5031705;28;20075;-63
2023/10/06 01:30:51;;;;;;;15.35;6.20;;;;;;;;;;5031980;28;20140;-63
2023/10/06 01:33:17;;;;;;;10.23;5.90;;;;;;;;;;5032152;28;20485;-62
2023/10/06 01:35:43;;;;;;;17.27;6.45;;;;;;;;;;5031517;28;20120;-62
2023/10/06 01:38:22;;;;;;;12.88;6.78;;;;;;;;;;5031830;28;20125;-62
2023/10/06 01:40:52;;;;;;;14.77;6.30;;;;;;;;;;5031916;28;20048;-62
2023/10/06 01:43:22;;;;;;;17.95;6.43;;;;;;;;;;5031692;28;20563;-62
2023/10/06 01:45:49;;;;;;;14.35;6.38;;;;;;;;;;5031729;28;20575;-62
2023/10/06 01:50:50;;;;;;;;;;;;;;;;;;5031208;28;20054;-62
2023/10/06 01:53:20;;;;;;;12.48;6.47;;;;;;;;;;5031697;28;20348;-62
2023/10/06 01:55:49;;;;;;;18.40;6.88;;;;;;;;;;5031549;28;20124;-62
2023/10/06 01:58:16;;;;;;;16.33;6.60;;;;;;;;;;5013812;28;20045;-62
2023/10/06 02:00:48;;;;;;;12.45;6.50;;;;;;;;;;5031689;28;20046;-62
2023/10/06 02:03:16;;;;;;;16.75;6.15;;;;;;;;;;5031667;28;20067;-62
2023/10/06 02:05:43;;;;;;;13.27;5.78;;;;;;;;;;5030743;28;20128;-62
2023/10/06 02:08:09;;;;;;;16.10;6.30;;;;;;;;;;5031618;28;20076;-62
2023/10/06 02:10:40;;;;;;;13.48;6.00;;;;;;;;;;5013987;28;20046;-62
2023/10/06 02:13:06;;;;;;;11.50;6.28;;;;;;;;;;5031215;28;20099;-62
2023/10/06 02:15:32;;;;;;;13.43;7.40;;;;;;;;;;5031394;28;20706;-62
2023/10/06 02:17:58;;;;;;;11.90;6.60;;;;;;;;;;5045616;28;20098;-62
2023/10/06 02:22:55;;;;;;;11.30;6.53;;;;;;;;;;5051200;28;20067;-62
2023/10/06 02:25:21;;;;;;;20.17;6.50;;;;;;;;;;5047613;28;20520;-62
2023/10/06 02:27:50;;;;;;;17.63;6.80;;;;;;;;;;5031004;28;20124;-62
2023/10/06 02:30:24;;;;;;;15.15;7.10;;;;;;;;;;5031172;28;20038;-62
2023/10/06 02:32:51;;;;;;;15.82;6.75;;;;;;;;;;5031330;28;20364;-62
2023/10/06 02:35:17;;;;;;;14.02;6.07;;;;;;;;;;5030821;28;20046;-62
2023/10/06 02:37:47;;;;;;;14.43;6.32;;;;;;;;;;5031283;28;20370;-62
2023/10/06 02:40:13;;;;;;;12.77;6.85;;;;;;;;;;5031197;28;20073;-62
2023/10/06 02:42:43;;;;;;;15.02;6.90;;;;;;;;;;5030908;28;20042;-62
2023/10/06 02:45:16;;;;;;;14.73;7.43;;;;;;;;;;5031096;28;20064;-62
2023/10/06 02:47:42;;;;;;;13.07;6.55;;;;;;;;;;5031200;28;20053;-62
2023/10/06 02:50:12;;;;;;;18.13;6.68;;;;;;;;;;5030649;28;20373;-62
2023/10/06 02:52:42;;;;;;;13.50;7.18;;;;;;;;;;5031200;28;20114;-62
2023/10/06 02:55:10;;;;;;;17.73;7.38;;;;;;;;;;5030962;28;20037;-62
2023/10/06 02:57:36;;;;;;;18.10;6.90;;;;;;;;;;5030528;28;20052;-62
2023/10/06 03:02:47;;;;;;;16.73;6.75;;;;;;;;;;5032429;28;20424;-62
2023/10/06 03:05:32;;;;;;;12.43;7.40;;;;;;;;;;5034388;28;20060;-62
2023/10/06 03:07:58;;;;;;;16.83;7.32;;;;;;;;;;5034879;28;20042;-62
2023/10/06 03:10:35;;;;;;;15.43;6.75;;;;;;;;;;5034871;28;20408;-62
2023/10/06 03:13:03;;;;;;;19.75;7.88;;;;;;;;;;5034420;28;20094;-62
2023/10/06 03:15:36;;;;;;;16.85;6.97;;;;;;;;;;5034571;28;20040;-62
2023/10/06 03:18:05;;;;;;;18.13;7.18;;;;;;;;;;5049500;28;20041;-62
2023/10/06 03:20:46;;;;;;;17.40;7.55;;;;;;;;;;5054229;28;20093;-62
2023/10/06 03:23:24;;;;;;;17.83;8.13;;;;;;;;;;5054660;28;20120;-62
2023/10/06 03:25:53;;;;;;;18.85;7.18;;;;;;;;;;5046945;28;20331;-62
2023/10/06 03:28:19;;;;;;;16.55;7.82;;;;;;;;;;5034183;28;20488;-62
2023/10/06 03:30:49;;;;;;;15.80;7.40;;;;;;;;;;5034534;28;20041;-62
2023/10/06 03:33:17;;;;;;;17.67;7.50;;;;;;;;;;5034385;28;20042;-62
2023/10/06 03:35:47;;;;;;;17.33;7.57;;;;;;;;;;5033896;28;20056;-62
2023/10/06 03:46:15;;;;;;;15.32;8.05;;;;;;;;;;4962392;28;20139;-62
2023/10/06 03:48:42;;;;;;;20.05;7.13;;;;;;;;;;5033862;28;20451;-62
2023/10/06 03:51:09;;;;;;;15.63;7.03;;;;;;;;;;5033745;28;20684;-62
2023/10/06 03:53:35;;;;;;;17.35;7.50;;;;;;;;;;5033980;28;20111;-62
2023/10/06 03:56:01;;;;;;;15.15;7.40;;;;;;;;;;5033634;28;20575;-62
2023/10/06 03:58:28;;;;;;;15.90;7.45;;;;;;;;;;5033952;28;20045;-62
2023/10/06 04:00:54;;;;;;;15.18;6.63;;;;;;;;;;5033742;28;20091;-62
2023/10/06 04:03:21;;;;;;;14.63;6.72;;;;;;;;;;5033780;28;20037;-62
2023/10/06 04:05:50;;;;;;;16.25;6.78;;;;;;;;;;5033452;28;20494;-62
2023/10/06 04:08:19;;;;;;;15.88;6.95;;;;;;;;;;5033878;28;20048;-62
2023/10/06 04:10:45;;;;;;;14.13;6.47;;;;;;;;;;5033728;28;20088;-62
2023/10/06 04:13:12;;;;;;;15.32;6.60;;;;;;;;;;5033112;28;20129;-62
2023/10/06 04:15:38;;;;;;;17.17;6.45;;;;;;;;;;5033589;28;20080;-62
2023/10/06 04:18:11;;;;;;;12.40;6.40;;;;;;;;;;5048653;28;20040;-62
2023/10/06 04:20:39;;;;;;;12.63;6.18;;;;;;;;;;5053437;28;20068;-62
2023/10/06 04:23:05;;;;;;;13.05;6.43;;;;;;;;;;5053521;28;20431;-62
2023/10/06 04:25:31;;;;;;;17.80;6.28;;;;;;;;;;5048230;28;20045;-62
2023/10/06 04:27:58;;;;;;;17.10;7.30;;;;;;;;;;5033142;28;20388;-62
2023/10/06 04:30:25;;;;;;;16.83;6.30;;;;;;;;;;5033086;28;20048;-62
2023/10/06 04:32:53;;;;;;;17.38;6.03;;;;;;;;;;5032951;28;20045;-62
2023/10/06 04:35:20;;;;;;;11.57;5.72;;;;;;;;;;5032933;28;20042;-62
2023/10/06 04:37:49;;;;;;;13.05;5.95;;;;;;;;;;5033143;28;20049;-62
2023/10/06 04:40:18;;;;;;;13.15;5.47;;;;;;;;;;5033222;28;20037;-62
2023/10/06 04:42:45;;;;;;;12.05;5.82;;;;;;;;;;5032407;28;20048;-62
2023/10/06 04:45:12;;;;;;;11.98;5.97;;;;;;;;;;5032905;28;20038;-62
2023/10/06 04:47:42;;;;;;;13.98;5.97;;;;;;;;;;5032961;28;20076;-62
2023/10/06 04:50:16;;;;;;;15.27;6.35;;;;;;;;;;5032591;28;20052;-62
2023/10/06 04:52:46;;;;;;;11.93;5.60;;;;;;;;;;5032636;28;20053;-62
2023/10/06 04:55:13;;;;;;;13.23;6.15;;;;;;;;;;5032496;28;20045;-62
2023/10/06 04:57:41;;;;;;;15.20;5.95;;;;;;;;;;5032547;28;20037;-62
2023/10/06 05:00:13;;;;;;;12.02;5.47;;;;;;;;;;5032702;28;20194;-62
2023/10/06 05:02:47;;;;;;;10.98;5.35;;;;;;;;;;5032169;28;20124;-62
2023/10/06 05:05:13;;;;;;;10.57;5.38;;;;;;;;;;5032440;28;20085;-62
2023/10/06 05:07:40;;;;;;;12.60;5.55;;;;;;;;;;5032485;28;20056;-62
2023/10/06 05:10:10;;;;;;;15.70;5.22;;;;;;;;;;5032321;28;20037;-62
2023/10/06 05:12:37;;;;;;;15.50;5.55;;;;;;;;;;5032569;28;20038;-62
2023/10/06 05:15:14;;;;;;;15.18;5.68;;;;;;;;;;5032336;28;20388;-62
2023/10/06 05:17:40;;;;;;;13.63;5.88;;;;;;;;;;5043813;28;20044;-62
2023/10/06 05:20:19;;;;;;;14.70;5.75;;;;;;;;;;5052430;28;20123;-62
2023/10/06 05:22:45;;;;;;;15.00;5.93;;;;;;;;;;5052251;28;20044;-62
2023/10/06 05:25:13;;;;;;;14.10;5.43;;;;;;;;;;5048968;28;20079;-62
2023/10/06 05:27:39;;;;;;;12.02;5.75;;;;;;;;;;5032210;28;20122;-62
2023/10/06 05:30:06;;;;;;;16.35;6.00;;;;;;;;;;5032376;28;20113;-62
2023/10/06 05:32:33;;;;;;;12.13;6.45;;;;;;;;;;5014337;28;20041;-62
2023/10/06 05:34:59;;;;;;;13.13;6.20;;;;;;;;;;5032089;28;20037;-62
2023/10/06 05:37:25;;;;;;;14.52;5.85;;;;;;;;;;5031701;28;20136;-62
2023/10/06 05:39:51;;;;;;;16.27;6.03;;;;;;;;;;5031683;28;20051;-63
2023/10/06 05:42:17;;;;;;;13.88;6.25;;;;;;;;;;5033158;28;20050;-62
2023/10/06 05:44:43;;;;;;;12.95;6.25;;;;;;;;;;5052907;28;20368;-62
2023/10/06 05:47:09;;;;;;;13.73;5.88;;;;;;;;;;5059200;28;20068;-62
2023/10/06 05:49:38;;;;;;;16.95;6.18;;;;;;;;;;5071001;28;20037;-62
2023/10/06 05:52:10;;;;;;;13.02;5.57;;;;;;;;;;5070808;28;20383;-61
2023/10/06 05:54:37;;;;;;;17.15;7.63;;;;;;;;;;5070635;28;20043;-61
2023/10/06 05:57:04;;;;;;;14.60;6.85;;;;;;;;;;5071367;28;20483;-61
2023/10/06 05:59:33;;;;;;;13.32;6.25;;;;;;;;;;5071116;28;20453;-61
2023/10/06 06:02:02;;;;;;;12.55;6.10;;;;;;;;;;5070872;28;20061;-60
2023/10/06 06:04:28;;;;;;;13.98;5.85;;;;;;;;;;5070710;28;20399;-60
2023/10/06 06:06:56;;;;;;;18.55;6.63;;;;;;;;;;5070724;28;20045;-61
2023/10/06 06:09:25;;;;;;;17.75;6.45;;;;;;;;;;5070924;28;20398;-61
2023/10/06 06:11:51;;;;;;;16.85;6.30;;;;;;;;;;5070869;28;20040;-62
2023/10/06 06:14:21;;;;;;;15.75;6.20;;;;;;;;;;5071046;28;20055;-62
2023/10/06 06:16:48;;;;;;;21.70;7.03;;;;;;;;;;5065657;28;20048;-62
2023/10/06 06:19:14;;;;;;;14.35;7.00;;;;;;;;;;5058890;28;20048;-62
2023/10/06 06:21:40;;;;;;;16.95;6.63;;;;;;;;;;5071037;28;20036;-62
2023/10/06 06:24:07;;;;;;;17.58;7.63;;;;;;;;;;5070467;28;20044;-61
2023/10/06 06:26:33;;;;;;;15.07;7.15;;;;;;;;;;5058464;28;20048;-61
2023/10/06 06:29:02;;;;;;;16.95;7.03;;;;;;;;;;5070870;28;20036;-61
2023/10/06 06:31:32;;;;;;;13.00;5.88;;;;;;;;;;5070253;28;20094;-61
2023/10/06 06:33:59;;;;;;;16.77;7.03;;;;;;;;;;5070736;28;20045;-63
2023/10/06 06:36:26;;;;;;;19.52;7.18;;;;;;;;;;5070504;28;20040;-62
2023/10/06 06:38:53;;;;;;;16.75;7.20;;;;;;;;;;5069780;28;20044;-63
2023/10/06 06:41:19;;;;;;;18.08;7.13;;;;;;;;;;5070456;28;20161;-63
2023/10/06 06:43:45;;;;;;;11.38;6.93;;;;;;;;;;5070604;28;20049;-63
2023/10/06 06:46:12;;;;;;;12.05;6.90;;;;;;;;;;5070461;28;20562;-63
2023/10/06 06:48:38;;;;;;;24.10;8.25;;;;;;;;;;5070162;28;20041;-63
2023/10/06 06:51:05;;;;;;;19.05;7.00;;;;;;;;;;5070356;28;20496;-63
2023/10/06 06:53:31;;;;;;;16.25;7.53;;;;;;;;;;5070724;28;20045;-61
2023/10/06 06:55:57;;;;;;;14.30;6.82;;;;;;;;;;5069518;28;20055;-62
2023/10/06 06:58:23;;;;;;;14.80;6.97;;;;;;;;;;5070383;28;20072;-57
2023/10/06 07:00:49;;;;;;;19.60;7.18;;;;;;;;;;5043847;28;20072;-58
2023/10/06 07:03:15;;;;;;;20.02;7.75;;;;;;;;;;5049719;28;20585;-57
2023/10/06 07:05:41;;;;;;;17.85;7.50;;;;;;;;;;5049805;28;20048;-54
2023/10/06 07:08:08;;;;;;;14.95;6.65;;;;;;;;;;5052522;28;20576;-57
2023/10/06 07:10:38;;;;;;;14.15;6.95;;;;;;;;;;5069598;28;20347;-58
2023/10/06 07:13:05;;;;;;;15.02;6.60;;;;;;;;;;5069481;28;20048;-61
2023/10/06 07:15:32;;;;;;;13.73;6.72;;;;;;;;;;5069281;28;20044;-60
2023/10/06 07:17:58;;;;;;;16.30;6.50;;;;;;;;;;5054752;28;20049;-60
2023/10/06 07:20:27;;;;;;;21.88;6.57;;;;;;;;;;5065614;28;20621;-60
2023/10/06 07:22:54;;;;;;;18.02;7.03;;;;;;;;;;5069899;28;20090;-60
2023/10/06 07:25:21;;;;;;;19.08;6.63;;;;;;;;;;5065943;28;20180;-60
2023/10/06 07:27:48;;;;;;;12.82;6.43;;;;;;;;;;5060356;28;20534;-60
2023/10/06 07:30:15;;;;;;;13.63;6.07;;;;;;;;;;5070023;28;20053;-60
2023/10/06 07:32:42;;;;;;;14.10;6.70;;;;;;;;;;5069239;28;20047;-60
2023/10/06 07:35:13;;;;;;;15.02;5.43;;;;;;;;;;5069389;28;20064;-60
2023/10/06 07:37:45;;;;;;;15.00;7.07;;;;;;;;;;5069507;28;20048;-60
2023/10/06 07:40:15;;;;;;;15.10;6.43;;;;;;;;;;5069082;28;20037;-60
2023/10/06 07:42:59;;;;;;;16.13;6.57;;;;;;;;;;5069418;28;20040;-60
2023/10/06 07:45:26;;;;;;;15.85;6.50;;;;;;;;;;5069104;28;20044;-59
2023/10/06 07:47:55;;;;;;;14.90;7.20;;;;;;;;;;5069314;28;20423;-59
2023/10/06 07:50:21;;;;;;;17.70;7.13;;;;;;;;;;5073091;28;20044;-59
2023/10/06 07:52:48;;;;;;;11.98;6.28;;;;;;;;;;5072651;28;20419;-59
2023/10/06 07:55:15;;;;;;;14.77;6.68;;;;;;;;;;5072918;28;20113;-59
2023/10/06 07:57:45;;;;;;;18.60;6.70;;;;;;;;;;5072517;28;20509;-60
2023/10/06 08:00:18;;;;;;;15.90;6.72;;;;;;;;;;5063144;28;20421;-59
2023/10/06 08:02:44;;;;;;;16.20;6.50;;;;;;;;;;5072805;28;20044;-59
2023/10/06 08:05:11;;;;;;;19.75;7.00;;;;;;;;;;5072907;28;20051;-60
2023/10/06 08:07:38;;;;;;;18.60;6.70;;;;;;;;;;5072412;28;20044;-60
2023/10/06 08:10:05;;;;;;;15.18;6.40;;;;;;;;;;5072957;28;20044;-59
2023/10/06 08:12:33;;;;;;;17.17;7.15;;;;;;;;;;5035295;28;20480;-60
2023/10/06 08:15:06;;;;;;;20.45;6.75;;;;;;;;;;5046323;28;20086;-64
2023/10/06 08:17:33;;;;;;;14.63;6.28;;;;;;;;;;5061284;28;20044;-64
2023/10/06 08:20:00;;;;;;;19.30;6.78;;;;;;;;;;5055864;28;20036;-62
2023/10/06 08:22:26;;;;;;;14.77;6.85;;;;;;;;;;5055304;28;20045;-61
2023/10/06 08:24:53;;;;;;;15.00;6.53;;;;;;;;;;5049562;28;20048;-60
2023/10/06 08:27:23;;;;;;;18.50;6.88;;;;;;;;;;5047059;28;20052;-61
2023/10/06 08:29:51;;;;;;;17.80;7.38;;;;;;;;;;5034916;28;20048;-57
2023/10/06 08:32:17;;;;;;;23.83;7.75;;;;;;;;;;5045612;28;20037;-64
2023/10/06 08:34:46;;;;;;;18.25;6.30;;;;;;;;;;5051155;28;20051;-64
2023/10/06 08:37:12;;;;;;;21.25;6.80;;;;;;;;;;5062376;28;20442;-63
2023/10/06 08:39:38;;;;;;;18.02;7.53;;;;;;;;;;5062584;28;20581;-63
2023/10/06 08:42:08;;;;;;;14.55;6.43;;;;;;;;;;5061391;28;20076;-64
2023/10/06 08:44:37;;;;;;;18.83;7.35;;;;;;;;;;5043773;28;20041;-64
2023/10/06 08:47:04;;;;;;;17.55;7.68;;;;;;;;;;5047167;28;20049;-65
2023/10/06 08:49:32;;;;;;;15.27;6.75;;;;;;;;;;5039915;28;21404;-65
2023/10/06 08:51:58;;;;;;;16.90;7.00;;;;;;;;;;5050535;28;20132;-65
2023/10/06 08:54:25;;;;;;;17.67;6.30;;;;;;;;;;5056929;28;20049;-64
2023/10/06 08:56:51;;;;;;;17.02;7.55;;;;;;;;;;5057533;28;20120;-63
2023/10/06 08:59:20;;;;;;;18.67;7.22;;;;;;;;;;5038121;28;20045;-64
2023/10/06 09:01:46;;;;;;;14.50;7.15;;;;;;;;;;5057147;28;20044;-63
2023/10/06 09:04:12;;;;;;;15.90;6.60;;;;;;;;;;5017622;28;20501;-62
2023/10/06 09:06:58;;;;;;;18.25;6.53;;;;;;;;;;5049366;28;20395;-63
2023/10/06 09:09:27;;;;;;;13.48;6.45;;;;;;;;;;5070355;28;20102;-62
2023/10/06 09:11:53;;;;;;;19.38;7.00;;;;;;;;;;5055530;28;20037;-61
2023/10/06 09:14:19;;;;;;;17.35;7.03;;;;;;;;;;5043664;28;20033;-61
2023/10/06 09:16:48;;;;;;;13.95;7.20;;;;;;;;;;5044155;28;20068;-61
2023/10/06 09:19:14;;;;;;;18.65;7.38;;;;;;;;;;5055828;28;20052;-63
2023/10/06 09:22:00;;;;;;;15.60;6.82;;;;;;;;;;5031625;28;20071;-64
2023/10/06 09:24:27;;;;;;;16.30;6.80;;;;;;;;;;5061743;28;20098;-65
2023/10/06 09:26:55;;;;;;;20.77;7.50;;;;;;;;;;5048294;28;20120;-62
2023/10/06 09:29:36;;;;;;;15.82;6.40;;;;;;;;;;5054345;28;20040;-61
2023/10/06 09:32:04;;;;;;;17.58;6.40;;;;;;;;;;5056981;28;20111;-62
2023/10/06 09:34:32;;;;;;;13.32;6.70;;;;;;;;;;5049906;28;20052;-62
2023/10/06 09:37:17;;;;;;;12.93;6.65;;;;;;;;;;5061910;28;20113;-64
2023/10/06 09:39:45;;;;;;;14.30;6.80;;;;;;;;;;5063576;28;20071;-63
2023/10/06 09:42:13;;;;;;;20.95;7.35;;;;;;;;;;5070895;28;20119;-63
2023/10/06 09:44:40;;;;;;;12.05;6.65;;;;;;;;;;5047660;28;20120;-64
2023/10/06 09:47:08;;;;;;;16.48;6.53;;;;;;;;;;5063558;28;20044;-65
2023/10/06 09:49:37;;;;;;;12.18;6.55;;;;;;;;;;5049656;28;20033;-64
2023/10/06 09:52:05;;;;;;;14.60;5.88;;;;;;;;;;5064678;28;20064;-64
2023/10/06 09:54:32;;;;;;;12.50;6.50;;;;;;;;;;5061747;28;20029;-63
2023/10/06 09:56:58;;;;;;;14.63;6.68;;;;;;;;;;5053214;28;20479;-63
2023/10/06 09:59:26;;;;;;;15.27;6.50;;;;;;;;;;5061100;28;20559;-64
2023/10/06 10:01:52;;;;;;;20.67;6.28;;;;;;;;;;5035209;28;20052;-64
2023/10/06 10:04:18;;;;;;;11.15;6.40;;;;;;;;;;5035150;28;20128;-64
2023/10/06 10:06:45;;;;;;;15.55;6.30;;;;;;;;;;5035559;28;20053;-64
2023/10/06 10:09:16;;;;;;;14.77;6.00;;;;;;;;;;5034800;28;20421;-64
2023/10/06 10:11:44;;;;;;;13.10;6.25;;;;;;;;;;5040872;28;20092;-64
2023/10/06 10:14:37;;;;;;;12.98;6.10;;;;;;;;;;5040856;28;20037;-64
2023/10/06 10:17:17;;;;;;;15.55;6.43;;;;;;;;;;5034677;28;20114;-64
2023/10/06 10:19:45;;;;;;;11.93;5.97;;;;;;;;;;5044026;28;20099;-64
2023/10/06 10:22:13;;;;;;;16.88;6.10;;;;;;;;;;5047280;28;20119;-64
2023/10/06 10:24:39;;;;;;;13.20;6.38;;;;;;;;;;5044291;28;20079;-64
2023/10/06 10:27:22;;;;;;;16.67;5.65;;;;;;;;;;5039797;28;20492;-64
2023/10/06 10:29:49;;;;;;;;;;;;;;;;;;5041439;28;20041;-64
2023/10/06 10:32:17;;;;;;;15.95;5.95;;;;;;;;;;5033956;28;20395;-64
2023/10/06 10:35:02;;;;;;;16.85;5.45;;;;;;;;;;5038363;28;20431;-64
2023/10/06 10:37:31;;;;;;;13.43;5.95;;;;;;;;;;5067868;28;20056;-64
2023/10/06 10:39:57;;;;;;;16.13;5.85;;;;;;;;;;5069083;28;20489;-64
2023/10/06 10:42:36;;;;;;;12.82;5.03;;;;;;;;;;5046489;28;20198;-64
2023/10/06 10:45:21;;;;;;;14.82;5.00;;;;;;;;;;5056287;28;20403;-64
2023/10/06 10:47:49;;;;;;;13.50;5.25;;;;;;;;;;5046748;28;20041;-63
2023/10/06 10:50:17;;;;;;;10.70;4.60;;;;;;;;;;5047306;28;20037;-63
2023/10/06 10:52:43;;;;;;;13.30;4.18;;;;;;;;;;5029539;28;20047;-64
2023/10/06 10:55:12;;;;;;;11.93;4.68;;;;;;;;;;5046159;28;20049;-62
2023/10/06 10:57:44;;;;;;;12.55;5.35;;;;;;;;;;5057486;28;20056;-62
2023/10/06 11:02:42;;;;;;;10.45;4.25;;;;;;;;;;5044900;28;20124;-62
2023/10/06 11:05:09;;;;;;;12.10;4.35;;;;;;;;;;5054117;28;20055;-63
2023/10/06 11:07:36;;;;;;;15.98;4.80;;;;;;;;;;5066666;28;20057;-63
2023/10/06 11:10:02;;;;;;;10.45;4.40;;;;;;;;;;5069582;28;20037;-63
2023/10/06 11:12:30;;;;;;;14.15;4.55;;;;;;;;;;5069032;28;20067;-62
2023/10/06 11:15:03;;;;;;;13.52;4.95;;;;;;;;;;5064257;28;20399;-62
2023/10/06 11:17:30;;;;;;;14.88;4.45;;;;;;;;;;5059612;28;20103;-61
2023/10/06 11:20:08;;;;;;;13.38;4.65;;;;;;;;;;5040390;28;20055;-61
2023/10/06 11:22:35;;;;;;;15.40;4.82;;;;;;;;;;5038544;28;20553;-62
2023/10/06 11:25:06;;;;;;;13.77;4.68;;;;;;;;;;5063042;28;20068;-64
2023/10/06 11:27:33;;;;;;;18.33;5.43;;;;;;;;;;5050824;28;20049;-64
2023/10/06 11:30:07;;;;;;;12.57;4.80;;;;;;;;;;5052422;28;20037;-61
2023/10/06 11:32:33;;;;;;;13.02;4.18;;;;;;;;;;5045693;28;20041;-62
2023/10/06 11:35:00;;;;;;;10.15;4.75;;;;;;;;;;5052768;28;20037;-63
2023/10/06 11:37:28;;;;;;;15.00;4.60;;;;;;;;;;5069628;28;20090;-63
2023/10/06 11:39:57;;;;;;;11.38;5.07;;;;;;;;;;5059140;28;20040;-64
2023/10/06 11:42:26;;;;;;;11.45;4.75;;;;;;;;;;5057306;28;20428;-63
2023/10/06 11:44:52;;;;;;;10.88;4.03;;;;;;;;;;5050552;28;20055;-63
2023/10/06 11:47:35;;;;;;;12.32;4.88;;;;;;;;;;5047283;28;20045;-63
2023/10/06 11:50:05;;;;;;;11.35;4.22;;;;;;;;;;5052751;28;20040;-62
2023/10/06 11:52:32;;;;;;;11.32;4.60;;;;;;;;;;5053119;28;20539;-62
2023/10/06 11:54:58;;;;;;;14.98;4.90;;;;;;;;;;5038893;28;20045;-62
2023/10/06 11:57:45;;;;;;;12.88;4.53;;;;;;;;;;5047768;28;20095;-62
2023/10/06 12:00:12;;;;;;;17.48;4.35;;;;;;;;;;5047667;28;20095;-63
2023/10/06 12:03:04;;;;;;;10.73;4.68;;;;;;;;;;5044575;28;20124;-61
2023/10/06 12:05:30;;;;;;;11.38;4.50;;;;;;;;;;5041538;28;20471;-60
2023/10/06 12:08:08;;;;;;;14.05;4.88;;;;;;;;;;5059459;28;20468;-63
2023/10/06 12:10:45;;;;;;;12.82;4.35;;;;;;;;;;5046530;28;20056;-63
2023/10/06 12:13:11;;;;;;;12.98;4.97;;;;;;;;;;5051008;28;20045;-64
2023/10/06 12:15:37;;;;;;;13.95;4.10;;;;;;;;;;5043739;28;20037;-63
2023/10/06 12:18:04;;;;;;;12.57;5.30;;;;;;;;;;5045560;28;20033;-63
2023/10/06 12:20:33;;;;;;;12.00;4.15;;;;;;;;;;5013496;28;20033;-63
2023/10/06 12:22:59;;;;;;;12.75;4.85;;;;;;;;;;5046672;28;20089;-63
2023/10/06 12:25:25;;;;;;;12.43;4.40;;;;;;;;;;5046250;28;20033;-63
2023/10/06 12:27:51;;;;;;;18.20;4.82;;;;;;;;;;5047512;28;20404;-63
2023/10/06 12:30:19;;;;;;;10.77;3.85;;;;;;;;;;5044980;28;20052;-63
2023/10/06 12:32:45;;;;;;;13.90;4.55;;;;;;;;;;5038293;28;20124;-64
2023/10/06 12:35:12;;;;;;;15.75;4.22;;;;;;;;;;5056377;28;20040;-63
2023/10/06 12:37:41;;;;;;;11.68;3.90;;;;;;;;;;5060542;28;20041;-62
2023/10/06 12:40:13;;;;;;;10.85;3.75;;;;;;;;;;5055798;28;20112;-62
2023/10/06 12:42:39;;;;;;;;;;;;;;;;;;5053350;28;20048;-63
2023/10/06 12:45:07;;;;;;;14.40;4.43;;;;;;;;;;5066501;28;20287;-63
2023/10/06 12:47:33;;;;;;;14.43;4.72;;;;;;;;;;5048977;28;20080;-64
2023/10/06 12:50:05;;;;;;;11.07;4.53;;;;;;;;;;5031584;28;20431;-63
2023/10/06 12:52:31;;;;;;;10.57;4.07;;;;;;;;;;5058572;28;20087;-63
2023/10/06 12:55:05;;;;;;;14.77;4.10;;;;;;;;;;5071503;28;20041;-64
2023/10/06 12:57:34;;;;;;;9.18;3.53;;;;;;;;;;5070526;28;20048;-63
2023/10/06 13:00:00;;;;;;;11.82;3.30;;;;;;;;;;5038782;28;20042;-63
2023/10/06 13:02:26;;;;;;;11.77;3.85;;;;;;;;;;5065495;28;20048;-63
2023/10/06 13:04:53;;;;;;;12.40;3.35;;;;;;;;;;5065256;28;20635;-62
2023/10/06 13:07:20;;;;;;;11.98;3.58;;;;;;;;;;5059504;28;20064;-61
2023/10/06 13:09:49;;;;;;;19.13;3.95;;;;;;;;;;5066025;28;20145;-62
2023/10/06 13:12:16;;;;;;;8.48;3.35;;;;;;;;;;5053189;28;20051;-62
2023/10/06 13:14:45;;;;;;;11.38;3.30;;;;;;;;;;5064371;28;20040;-62
2023/10/06 13:17:11;;;;;;;15.80;3.83;;;;;;;;;;5051153;28;20028;-61
2023/10/06 13:19:37;;;;;;;14.23;3.75;;;;;;;;;;5053191;28;20464;-62
2023/10/06 13:22:05;;;;;;;11.93;3.50;;;;;;;;;;5053682;28;20029;-62
2023/10/06 13:24:34;;;;;;;13.48;4.88;;;;;;;;;;5048700;28;20037;-63
2023/10/06 13:27:00;;;;;;;13.70;3.88;;;;;;;;;;5065496;28;20538;-64
2023/10/06 13:29:26;;;;;;;10.63;3.33;;;;;;;;;;5058886;28;20045;-63
2023/10/06 13:31:52;;;;;;;15.32;4.25;;;;;;;;;;5055771;28;20123;-64
2023/10/06 13:34:18;;;;;;;16.95;4.60;;;;;;;;;;5054834;28;20077;-64
2023/10/06 13:36:44;;;;;;;13.80;3.30;;;;;;;;;;5044364;28;20045;-64
2023/10/06 13:39:15;;;;;;;15.02;3.60;;;;;;;;;;5049636;28;20086;-64
2023/10/06 13:41:42;;;;;;;9.45;3.30;;;;;;;;;;5039309;28;20071;-63
2023/10/06 13:44:08;;;;;;;13.40;3.67;;;;;;;;;;5068073;28;20184;-64
2023/10/06 13:46:35;;;;;;;11.35;3.08;;;;;;;;;;5039095;28;20475;-64
2023/10/06 13:49:02;;;;;;;12.07;3.83;;;;;;;;;;5050302;28;20412;-64
2023/10/06 13:51:29;;;;;;;12.75;3.92;;;;;;;;;;5070280;28;20065;-64
2023/10/06 13:53:55;;;;;;;12.95;4.15;;;;;;;;;;5052611;28;20037;-64
2023/10/06 13:56:21;;;;;;;12.48;3.40;;;;;;;;;;5037821;28;20040;-64
2023/10/06 13:58:47;;;;;;;8.98;3.28;;;;;;;;;;5066088;28;20051;-64
2023/10/06 14:01:14;;;;;;;13.57;3.88;;;;;;;;;;5070821;28;20044;-64
2023/10/06 14:03:42;;;;;;;10.50;2.88;;;;;;;;;;5070611;28;20384;-64
2023/10/06 14:06:08;;;;;;;15.32;3.78;;;;;;;;;;5070129;28;20495;-64
2023/10/06 14:08:35;;;;;;;7.93;3.20;;;;;;;;;;5070866;28;20100;-64
2023/10/06 14:11:01;;;;;;;11.40;3.55;;;;;;;;;;5070520;28;20040;-64
2023/10/06 14:13:28;;;;;;;10.50;3.40;;;;;;;;;;5070485;28;20036;-64
2023/10/06 14:15:54;;;;;;;12.20;3.67;;;;;;;;;;5070546;28;20044;-64
2023/10/06 14:18:25;;;;;;;12.63;3.38;;;;;;;;;;5063534;28;20043;-64
2023/10/06 14:20:57;;;;;;;10.05;3.30;;;;;;;;;;5070847;28;20056;-64
2023/10/06 14:23:30;;;;;;;9.85;3.15;;;;;;;;;;5070669;28;20601;-64
2023/10/06 14:25:59;;;;;;;11.73;3.08;;;;;;;;;;5062150;28;20491;-64
2023/10/06 14:28:25;;;;;;;11.50;3.33;;;;;;;;;;5050887;28;20120;-64
2023/10/06 14:30:53;;;;;;;12.35;3.40;;;;;;;;;;5065432;28;20040;-64
2023/10/06 14:33:38;;;;;;;12.20;3.45;;;;;;;;;;5070271;28;20045;-64
2023/10/06 14:46:30;;;;;;;12.13;3.30;;;;;;;;;;5053142;28;20461;-64
2023/10/06 14:49:01;;;;;;;12.80;3.70;;;;;;;;;;5052608;28;20037;-64
2023/10/06 14:51:27;;;;;;;12.35;2.72;;;;;;;;;;5070280;28;20399;-64
2023/10/06 14:53:52;;;;;;;13.07;3.42;;;;;;;;;;5070950;28;20041;-63
2023/10/06 14:56:19;;;;;;;13.48;3.25;;;;;;;;;;5070409;28;20486;-63
2023/10/06 14:58:45;;;;;;;11.65;3.67;;;;;;;;;;5074197;28;20048;-63
2023/10/06 15:01:12;;;;;;;13.10;3.35;;;;;;;;;;5075022;28;20037;-63
2023/10/06 15:03:40;;;;;;;14.75;2.92;;;;;;;;;;5074625;28;20123;-63
2023/10/06 15:06:10;;;;;;;13.77;3.13;;;;;;;;;;5074718;28;20119;-63
2023/10/06 15:08:36;;;;;;;11.93;2.92;;;;;;;;;;5074611;28;20041;-63
2023/10/06 15:11:02;;;;;;;16.77;3.15;;;;;;;;;;5074243;28;20185;-63